sensor_id;sensor_type;location;lat;lon;timestamp;P1;durP1;ratioP1;P2;durP2;ratioP2
51792;SDS011;37850;53.178;6.376;2022-10-26T00:00:07;15.70;;;6.85;;
51792;SDS011;37850;53.178;6.376;2022-10-26T00:02:33;13.15;;;6.97;;
51792;SDS011;37850;53.178;6.376;2022-10-26T00:04:58;17.58;;;7.72;;
51792;SDS011;37850;53.178;6.376;2022-10-26T00:07:29;14.60;;;7.68;;
51792;SDS011;37850;53.178;6.376;2022-10-26T00:09:55;17.20;;;7.25;;
51792;SDS011;37850;53.178;6.376;2022-10-26T00:12:21;18.25;;;8.80;;
51792;SDS011;37850;53.178;6.376;2022-10-26T00:14:46;14.15;;;7.70;;
51792;SDS011;37850;53.178;6.376;2022-10-26T00:17:12;16.88;;;7.57;;
51792;SDS011;37850;53.178;6.376;2022-10-26T00:19:38;18.90;;;7.45;;
51792;SDS011;37850;53.178;6.376;2022-10-26T00:22:04;15.32;;;7.07;;
51792;SDS011;37850;53.178;6.376;2022-10-26T00:24:29;14.30;;;7.07;;
51792;SDS011;37850;53.178;6.376;2022-10-26T00:26:55;15.25;;;7.35;;
51792;SDS011;37850;53.178;6.376;2022-10-26T00:29:21;16.80;;;7.22;;
51792;SDS011;37850;53.178;6.376;2022-10-26T00:31:47;20.73;;;7.93;;
51792;SDS011;37850;53.178;6.376;2022-10-26T00:34:12;20.40;;;8.18;;
51792;SDS011;37850;53.178;6.376;2022-10-26T00:36:38;16.38;;;8.13;;
51792;SDS011;37850;53.178;6.376;2022-10-26T00:39:04;18.45;;;7.30;;
51792;SDS011;37850;53.178;6.376;2022-10-26T00:41:31;15.23;;;7.53;;
51792;SDS011;37850;53.178;6.376;2022-10-26T00:43:58;14.35;;;7.57;;
51792;SDS011;37850;53.178;6.376;2022-10-26T00:46:29;13.80;;;8.13;;
51792;SDS011;37850;53.178;6.376;2022-10-26T00:49:04;15.48;;;7.55;;
51792;SDS011;37850;53.178;6.376;2022-10-26T00:51:37;17.58;;;8.23;;
51792;SDS011;37850;53.178;6.376;2022-10-26T00:54:14;18.98;;;7.68;;
51792;SDS011;37850;53.178;6.376;2022-10-26T00:56:45;16.95;;;7.72;;
51792;SDS011;37850;53.178;6.376;2022-10-26T00:59:12;14.75;;;7.65;;
51792;SDS011;37850;53.178;6.376;2022-10-26T01:01:40;15.35;;;7.80;;
51792;SDS011;37850;53.178;6.376;2022-10-26T01:04:09;17.73;;;8.10;;
51792;SDS011;37850;53.178;6.376;2022-10-26T01:06:35;15.52;;;8.00;;
51792;SDS011;37850;53.178;6.376;2022-10-26T01:09:02;16.85;;;8.20;;
51792;SDS011;37850;53.178;6.376;2022-10-26T01:11:28;12.82;;;7.82;;
51792;SDS011;37850;53.178;6.376;2022-10-26T01:13:54;19.27;;;8.35;;
51792;SDS011;37850;53.178;6.376;2022-10-26T01:16:26;18.58;;;7.63;;
51792;SDS011;37850;53.178;6.376;2022-10-26T01:27:32;15.38;;;8.25;;
51792;SDS011;37850;53.178;6.376;2022-10-26T01:46:17;21.73;;;8.85;;
51792;SDS011;37850;53.178;6.376;2022-10-26T01:48:45;18.30;;;9.55;;
51792;SDS011;37850;53.178;6.376;2022-10-26T01:51:14;17.05;;;8.82;;
51792;SDS011;37850;53.178;6.376;2022-10-26T01:53:44;15.55;;;9.43;;
51792;SDS011;37850;53.178;6.376;2022-10-26T01:56:13;16.48;;;9.55;;
51792;SDS011;37850;53.178;6.376;2022-10-26T01:58:59;17.15;;;9.80;;
51792;SDS011;37850;53.178;6.376;2022-10-26T02:09:59;18.60;;;10.98;;
51792;SDS011;37850;53.178;6.376;2022-10-26T02:18:13;19.85;;;11.07;;
51792;SDS011;37850;53.178;6.376;2022-10-26T02:20:46;20.25;;;10.70;;
51792;SDS011;37850;53.178;6.376;2022-10-26T02:23:16;20.63;;;10.87;;
51792;SDS011;37850;53.178;6.376;2022-10-26T02:25:45;19.48;;;10.45;;
51792;SDS011;37850;53.178;6.376;2022-10-26T02:28:16;21.33;;;10.27;;
51792;SDS011;37850;53.178;6.376;2022-10-26T02:30:45;22.30;;;10.18;;
51792;SDS011;37850;53.178;6.376;2022-10-26T02:33:13;16.45;;;10.40;;
51792;SDS011;37850;53.178;6.376;2022-10-26T02:35:40;19.55;;;10.05;;
51792;SDS011;37850;53.178;6.376;2022-10-26T02:38:10;19.92;;;10.32;;
51792;SDS011;37850;53.178;6.376;2022-10-26T02:40:37;20.17;;;10.20;;
51792;SDS011;37850;53.178;6.376;2022-10-26T02:43:04;20.50;;;10.05;;
51792;SDS011;37850;53.178;6.376;2022-10-26T02:45:35;18.47;;;10.37;;
51792;SDS011;37850;53.178;6.376;2022-10-26T02:48:06;17.85;;;9.18;;
51792;SDS011;37850;53.178;6.376;2022-10-26T02:50:34;19.23;;;10.15;;
51792;SDS011;37850;53.178;6.376;2022-10-26T02:53:15;19.45;;;9.75;;
51792;SDS011;37850;53.178;6.376;2022-10-26T02:55:48;18.85;;;9.95;;
51792;SDS011;37850;53.178;6.376;2022-10-26T02:58:28;19.23;;;9.35;;
51792;SDS011;37850;53.178;6.376;2022-10-26T03:00:58;16.88;;;8.80;;
51792;SDS011;37850;53.178;6.376;2022-10-26T03:03:24;20.10;;;9.70;;
51792;SDS011;37850;53.178;6.376;2022-10-26T03:05:50;18.15;;;9.32;;
51792;SDS011;37850;53.178;6.376;2022-10-26T03:08:16;13.07;;;8.93;;
51792;SDS011;37850;53.178;6.376;2022-10-26T03:10:42;18.00;;;9.70;;
51792;SDS011;37850;53.178;6.376;2022-10-26T03:13:09;14.05;;;8.55;;
51792;SDS011;37850;53.178;6.376;2022-10-26T03:15:36;14.68;;;8.13;;
51792;SDS011;37850;53.178;6.376;2022-10-26T03:18:02;15.25;;;8.93;;
51792;SDS011;37850;53.178;6.376;2022-10-26T03:20:28;14.00;;;9.10;;
51792;SDS011;37850;53.178;6.376;2022-10-26T03:22:54;17.80;;;8.95;;
51792;SDS011;37850;53.178;6.376;2022-10-26T03:25:21;20.88;;;9.98;;
51792;SDS011;37850;53.178;6.376;2022-10-26T03:27:55;19.77;;;9.77;;
51792;SDS011;37850;53.178;6.376;2022-10-26T03:30:24;15.75;;;9.15;;
51792;SDS011;37850;53.178;6.376;2022-10-26T03:32:50;13.70;;;9.10;;
51792;SDS011;37850;53.178;6.376;2022-10-26T03:35:15;15.93;;;9.70;;
51792;SDS011;37850;53.178;6.376;2022-10-26T03:37:41;17.80;;;9.70;;
51792;SDS011;37850;53.178;6.376;2022-10-26T03:40:07;14.43;;;9.27;;
51792;SDS011;37850;53.178;6.376;2022-10-26T03:42:37;16.50;;;10.25;;
51792;SDS011;37850;53.178;6.376;2022-10-26T03:45:03;17.55;;;10.15;;
51792;SDS011;37850;53.178;6.376;2022-10-26T03:47:30;19.08;;;10.75;;
51792;SDS011;37850;53.178;6.376;2022-10-26T03:49:56;18.98;;;11.32;;
51792;SDS011;37850;53.178;6.376;2022-10-26T03:52:22;19.83;;;10.98;;
51792;SDS011;37850;53.178;6.376;2022-10-26T03:54:49;19.05;;;10.80;;
51792;SDS011;37850;53.178;6.376;2022-10-26T03:57:15;19.60;;;10.82;;
51792;SDS011;37850;53.178;6.376;2022-10-26T03:59:41;20.60;;;12.35;;
51792;SDS011;37850;53.178;6.376;2022-10-26T04:02:07;18.85;;;11.68;;
51792;SDS011;37850;53.178;6.376;2022-10-26T04:04:33;20.75;;;11.02;;
51792;SDS011;37850;53.178;6.376;2022-10-26T04:06:58;15.63;;;10.55;;
51792;SDS011;37850;53.178;6.376;2022-10-26T04:09:24;19.25;;;12.10;;
51792;SDS011;37850;53.178;6.376;2022-10-26T04:11:50;19.55;;;11.40;;
51792;SDS011;37850;53.178;6.376;2022-10-26T04:14:16;17.52;;;11.68;;
51792;SDS011;37850;53.178;6.376;2022-10-26T04:16:41;20.15;;;11.77;;
51792;SDS011;37850;53.178;6.376;2022-10-26T04:19:08;24.33;;;11.90;;
51792;SDS011;37850;53.178;6.376;2022-10-26T04:21:34;18.35;;;12.15;;
51792;SDS011;37850;53.178;6.376;2022-10-26T04:24:00;19.92;;;11.70;;
51792;SDS011;37850;53.178;6.376;2022-10-26T04:26:26;20.13;;;12.07;;
51792;SDS011;37850;53.178;6.376;2022-10-26T04:28:52;21.55;;;12.52;;
51792;SDS011;37850;53.178;6.376;2022-10-26T04:31:18;19.25;;;11.60;;
51792;SDS011;37850;53.178;6.376;2022-10-26T04:33:43;19.63;;;12.43;;
51792;SDS011;37850;53.178;6.376;2022-10-26T04:36:09;24.73;;;13.18;;
51792;SDS011;37850;53.178;6.376;2022-10-26T04:38:35;21.13;;;13.23;;
51792;SDS011;37850;53.178;6.376;2022-10-26T04:41:01;21.52;;;14.13;;
51792;SDS011;37850;53.178;6.376;2022-10-26T04:43:27;21.02;;;13.15;;
51792;SDS011;37850;53.178;6.376;2022-10-26T04:45:56;23.05;;;13.05;;
51792;SDS011;37850;53.178;6.376;2022-10-26T04:48:22;22.73;;;13.52;;
51792;SDS011;37850;53.178;6.376;2022-10-26T04:50:48;23.67;;;13.52;;
51792;SDS011;37850;53.178;6.376;2022-10-26T04:53:14;23.38;;;13.50;;
51792;SDS011;37850;53.178;6.376;2022-10-26T04:55:40;24.73;;;14.23;;
51792;SDS011;37850;53.178;6.376;2022-10-26T04:58:06;23.10;;;13.70;;
51792;SDS011;37850;53.178;6.376;2022-10-26T05:00:31;27.67;;;13.77;;
51792;SDS011;37850;53.178;6.376;2022-10-26T05:03:01;27.88;;;14.60;;
51792;SDS011;37850;53.178;6.376;2022-10-26T05:05:29;22.45;;;14.38;;
51792;SDS011;37850;53.178;6.376;2022-10-26T05:07:56;26.60;;;14.85;;
51792;SDS011;37850;53.178;6.376;2022-10-26T05:10:22;26.77;;;16.08;;
51792;SDS011;37850;53.178;6.376;2022-10-26T05:12:49;25.98;;;15.07;;
51792;SDS011;37850;53.178;6.376;2022-10-26T05:15:19;24.35;;;14.45;;
51792;SDS011;37850;53.178;6.376;2022-10-26T05:17:46;23.33;;;14.57;;
51792;SDS011;37850;53.178;6.376;2022-10-26T05:20:18;26.83;;;14.98;;
51792;SDS011;37850;53.178;6.376;2022-10-26T05:22:45;28.40;;;15.63;;
51792;SDS011;37850;53.178;6.376;2022-10-26T05:25:16;26.40;;;14.98;;
51792;SDS011;37850;53.178;6.376;2022-10-26T05:27:42;25.30;;;14.85;;
51792;SDS011;37850;53.178;6.376;2022-10-26T05:30:08;26.08;;;15.77;;
51792;SDS011;37850;53.178;6.376;2022-10-26T05:32:34;25.23;;;14.93;;
51792;SDS011;37850;53.178;6.376;2022-10-26T05:35:00;25.67;;;14.77;;
51792;SDS011;37850;53.178;6.376;2022-10-26T05:37:28;25.50;;;15.13;;
51792;SDS011;37850;53.178;6.376;2022-10-26T05:39:56;25.10;;;14.35;;
51792;SDS011;37850;53.178;6.376;2022-10-26T05:42:22;25.15;;;14.52;;
51792;SDS011;37850;53.178;6.376;2022-10-26T05:44:49;24.70;;;14.73;;
51792;SDS011;37850;53.178;6.376;2022-10-26T05:47:15;26.20;;;15.32;;
51792;SDS011;37850;53.178;6.376;2022-10-26T05:49:41;27.75;;;15.15;;
51792;SDS011;37850;53.178;6.376;2022-10-26T05:52:06;23.00;;;15.40;;
51792;SDS011;37850;53.178;6.376;2022-10-26T05:54:32;23.45;;;13.77;;
51792;SDS011;37850;53.178;6.376;2022-10-26T05:56:58;25.27;;;15.20;;
51792;SDS011;37850;53.178;6.376;2022-10-26T05:59:24;20.75;;;14.90;;
51792;SDS011;37850;53.178;6.376;2022-10-26T06:07:10;24.98;;;14.93;;
51792;SDS011;37850;53.178;6.376;2022-10-26T06:09:38;24.00;;;14.27;;
51792;SDS011;37850;53.178;6.376;2022-10-26T06:12:05;26.05;;;15.13;;
51792;SDS011;37850;53.178;6.376;2022-10-26T06:14:32;22.67;;;14.80;;
51792;SDS011;37850;53.178;6.376;2022-10-26T06:24:39;27.20;;;14.45;;
51792;SDS011;37850;53.178;6.376;2022-10-26T06:27:10;25.60;;;15.60;;
51792;SDS011;37850;53.178;6.376;2022-10-26T06:29:56;24.67;;;15.18;;
51792;SDS011;37850;53.178;6.376;2022-10-26T06:32:31;23.10;;;13.50;;
51792;SDS011;37850;53.178;6.376;2022-10-26T06:35:01;31.40;;;14.48;;
51792;SDS011;37850;53.178;6.376;2022-10-26T06:37:48;21.23;;;13.57;;
51792;SDS011;37850;53.178;6.376;2022-10-26T06:40:15;25.65;;;14.43;;
51792;SDS011;37850;53.178;6.376;2022-10-26T06:42:42;20.90;;;13.90;;
51792;SDS011;37850;53.178;6.376;2022-10-26T06:45:12;26.98;;;15.32;;
51792;SDS011;37850;53.178;6.376;2022-10-26T06:52:59;23.02;;;13.57;;
51792;SDS011;37850;53.178;6.376;2022-10-26T06:55:47;24.58;;;13.52;;
51792;SDS011;37850;53.178;6.376;2022-10-26T06:58:18;23.70;;;12.73;;
51792;SDS011;37850;53.178;6.376;2022-10-26T07:00:50;20.73;;;13.15;;
51792;SDS011;37850;53.178;6.376;2022-10-26T07:03:18;23.92;;;13.52;;
51792;SDS011;37850;53.178;6.376;2022-10-26T07:05:44;21.25;;;12.77;;
51792;SDS011;37850;53.178;6.376;2022-10-26T07:08:10;22.23;;;13.13;;
51792;SDS011;37850;53.178;6.376;2022-10-26T07:10:36;20.55;;;12.57;;
51792;SDS011;37850;53.178;6.376;2022-10-26T07:13:06;23.80;;;12.20;;
51792;SDS011;37850;53.178;6.376;2022-10-26T07:15:35;21.52;;;12.50;;
51792;SDS011;37850;53.178;6.376;2022-10-26T07:18:03;21.63;;;11.85;;
51792;SDS011;37850;53.178;6.376;2022-10-26T07:20:30;21.83;;;12.05;;
51792;SDS011;37850;53.178;6.376;2022-10-26T07:22:57;24.00;;;12.10;;
51792;SDS011;37850;53.178;6.376;2022-10-26T07:25:23;20.77;;;12.23;;
51792;SDS011;37850;53.178;6.376;2022-10-26T07:27:50;22.10;;;11.77;;
51792;SDS011;37850;53.178;6.376;2022-10-26T07:30:16;23.83;;;12.15;;
51792;SDS011;37850;53.178;6.376;2022-10-26T07:32:42;21.25;;;12.48;;
51792;SDS011;37850;53.178;6.376;2022-10-26T07:35:08;20.38;;;11.35;;
51792;SDS011;37850;53.178;6.376;2022-10-26T07:37:34;21.33;;;11.77;;
51792;SDS011;37850;53.178;6.376;2022-10-26T07:40:00;22.80;;;11.00;;
51792;SDS011;37850;53.178;6.376;2022-10-26T07:42:26;16.75;;;10.88;;
51792;SDS011;37850;53.178;6.376;2022-10-26T07:44:51;19.98;;;11.68;;
51792;SDS011;37850;53.178;6.376;2022-10-26T07:47:17;17.58;;;11.07;;
51792;SDS011;37850;53.178;6.376;2022-10-26T07:49:43;21.83;;;11.80;;
51792;SDS011;37850;53.178;6.376;2022-10-26T07:52:09;19.25;;;10.13;;
51792;SDS011;37850;53.178;6.376;2022-10-26T07:54:35;19.58;;;10.55;;
51792;SDS011;37850;53.178;6.376;2022-10-26T07:57:01;21.10;;;10.80;;
51792;SDS011;37850;53.178;6.376;2022-10-26T07:59:27;17.10;;;9.85;;
51792;SDS011;37850;53.178;6.376;2022-10-26T08:01:52;21.45;;;10.40;;
51792;SDS011;37850;53.178;6.376;2022-10-26T08:04:18;18.33;;;10.52;;
51792;SDS011;37850;53.178;6.376;2022-10-26T08:06:44;19.80;;;9.60;;
51792;SDS011;37850;53.178;6.376;2022-10-26T08:09:11;15.55;;;8.88;;
51792;SDS011;37850;53.178;6.376;2022-10-26T08:11:36;15.85;;;8.48;;
51792;SDS011;37850;53.178;6.376;2022-10-26T08:14:03;15.98;;;9.07;;
51792;SDS011;37850;53.178;6.376;2022-10-26T08:16:29;17.83;;;8.30;;
51792;SDS011;37850;53.178;6.376;2022-10-26T08:18:59;17.23;;;7.90;;
51792;SDS011;37850;53.178;6.376;2022-10-26T08:21:25;17.48;;;7.53;;
51792;SDS011;37850;53.178;6.376;2022-10-26T08:23:50;15.57;;;8.05;;
51792;SDS011;37850;53.178;6.376;2022-10-26T08:26:16;14.98;;;7.57;;
51792;SDS011;37850;53.178;6.376;2022-10-26T08:28:42;14.90;;;7.60;;
51792;SDS011;37850;53.178;6.376;2022-10-26T08:31:08;18.38;;;7.30;;
51792;SDS011;37850;53.178;6.376;2022-10-26T08:33:33;12.60;;;6.47;;
51792;SDS011;37850;53.178;6.376;2022-10-26T08:36:00;14.48;;;6.30;;
51792;SDS011;37850;53.178;6.376;2022-10-26T08:38:28;17.20;;;5.13;;
51792;SDS011;37850;53.178;6.376;2022-10-26T08:40:54;11.23;;;5.35;;
51792;SDS011;37850;53.178;6.376;2022-10-26T08:46:21;14.20;;;5.60;;
51792;SDS011;37850;53.178;6.376;2022-10-26T08:48:52;15.80;;;5.38;;
51792;SDS011;37850;53.178;6.376;2022-10-26T08:51:35;9.38;;;4.38;;
51792;SDS011;37850;53.178;6.376;2022-10-26T08:54:16;10.02;;;5.22;;
51792;SDS011;37850;53.178;6.376;2022-10-26T08:56:51;8.82;;;4.30;;
51792;SDS011;37850;53.178;6.376;2022-10-26T08:59:39;9.65;;;4.40;;
51792;SDS011;37850;53.178;6.376;2022-10-26T09:02:13;11.52;;;4.95;;
51792;SDS011;37850;53.178;6.376;2022-10-26T09:04:41;10.65;;;4.38;;
51792;SDS011;37850;53.178;6.376;2022-10-26T09:07:30;10.10;;;4.22;;
51792;SDS011;37850;53.178;6.376;2022-10-26T09:13:11;8.80;;;4.50;;
51792;SDS011;37850;53.178;6.376;2022-10-26T09:18:41;12.35;;;4.35;;
51792;SDS011;37850;53.178;6.376;2022-10-26T09:21:27;8.40;;;4.07;;
51792;SDS011;37850;53.178;6.376;2022-10-26T09:24:12;10.77;;;4.38;;
51792;SDS011;37850;53.178;6.376;2022-10-26T09:29:13;9.88;;;4.03;;
51792;SDS011;37850;53.178;6.376;2022-10-26T09:31:41;10.07;;;4.38;;
51792;SDS011;37850;53.178;6.376;2022-10-26T09:34:23;9.40;;;4.28;;
51792;SDS011;37850;53.178;6.376;2022-10-26T09:36:51;12.32;;;4.20;;
51792;SDS011;37850;53.178;6.376;2022-10-26T09:39:29;15.73;;;4.40;;
51792;SDS011;37850;53.178;6.376;2022-10-26T09:42:48;10.93;;;3.70;;
51792;SDS011;37850;53.178;6.376;2022-10-26T09:45:05;8.43;;;4.03;;
51792;SDS011;37850;53.178;6.376;2022-10-26T09:47:38;8.15;;;3.92;;
51792;SDS011;37850;53.178;6.376;2022-10-26T09:52:52;10.52;;;4.20;;
51792;SDS011;37850;53.178;6.376;2022-10-26T09:55:18;10.82;;;3.90;;
51792;SDS011;37850;53.178;6.376;2022-10-26T09:57:47;14.10;;;3.97;;
51792;SDS011;37850;53.178;6.376;2022-10-26T10:00:17;9.02;;;4.13;;
51792;SDS011;37850;53.178;6.376;2022-10-26T10:02:50;10.07;;;4.03;;
51792;SDS011;37850;53.178;6.376;2022-10-26T10:13:43;8.52;;;4.15;;
51792;SDS011;37850;53.178;6.376;2022-10-26T10:16:20;11.70;;;4.05;;
51792;SDS011;37850;53.178;6.376;2022-10-26T10:18:54;9.82;;;3.90;;
51792;SDS011;37850;53.178;6.376;2022-10-26T10:21:32;12.23;;;3.83;;
51792;SDS011;37850;53.178;6.376;2022-10-26T10:24:00;10.32;;;3.67;;
51792;SDS011;37850;53.178;6.376;2022-10-26T10:26:25;13.43;;;4.10;;
51792;SDS011;37850;53.178;6.376;2022-10-26T10:28:55;10.90;;;4.00;;
51792;SDS011;37850;53.178;6.376;2022-10-26T10:31:27;9.90;;;3.72;;
51792;SDS011;37850;53.178;6.376;2022-10-26T10:33:56;8.88;;;3.88;;
51792;SDS011;37850;53.178;6.376;2022-10-26T10:36:24;15.63;;;3.72;;
51792;SDS011;37850;53.178;6.376;2022-10-26T10:38:53;7.88;;;3.50;;
51792;SDS011;37850;53.178;6.376;2022-10-26T10:41:27;10.95;;;3.58;;
51792;SDS011;37850;53.178;6.376;2022-10-26T10:46:32;9.48;;;3.28;;
51792;SDS011;37850;53.178;6.376;2022-10-26T10:49:01;9.25;;;3.50;;
51792;SDS011;37850;53.178;6.376;2022-10-26T11:07:50;11.85;;;2.83;;
51792;SDS011;37850;53.178;6.376;2022-10-26T11:10:28;8.95;;;3.10;;
51792;SDS011;37850;53.178;6.376;2022-10-26T11:13:00;9.93;;;2.95;;
51792;SDS011;37850;53.178;6.376;2022-10-26T11:15:31;13.25;;;2.50;;
51792;SDS011;37850;53.178;6.376;2022-10-26T11:20:29;8.70;;;2.15;;
51792;SDS011;37850;53.178;6.376;2022-10-26T11:23:11;9.52;;;2.50;;
51792;SDS011;37850;53.178;6.376;2022-10-26T11:28:18;6.97;;;2.53;;
51792;SDS011;37850;53.178;6.376;2022-10-26T11:31:07;9.50;;;2.50;;
51792;SDS011;37850;53.178;6.376;2022-10-26T11:33:46;9.30;;;2.45;;
51792;SDS011;37850;53.178;6.376;2022-10-26T11:36:35;6.40;;;2.35;;
51792;SDS011;37850;53.178;6.376;2022-10-26T11:41:47;8.63;;;2.17;;
51792;SDS011;37850;53.178;6.376;2022-10-26T11:47:24;11.18;;;2.53;;
51792;SDS011;37850;53.178;6.376;2022-10-26T11:50:10;7.53;;;2.72;;
51792;SDS011;37850;53.178;6.376;2022-10-26T11:52:42;8.45;;;2.30;;
51792;SDS011;37850;53.178;6.376;2022-10-26T11:55:13;7.88;;;2.42;;
51792;SDS011;37850;53.178;6.376;2022-10-26T11:57:38;9.40;;;2.72;;
51792;SDS011;37850;53.178;6.376;2022-10-26T12:00:07;7.90;;;2.38;;
51792;SDS011;37850;53.178;6.376;2022-10-26T12:02:41;8.40;;;2.40;;
51792;SDS011;37850;53.178;6.376;2022-10-26T12:08:13;9.23;;;2.67;;
51792;SDS011;37850;53.178;6.376;2022-10-26T12:10:49;9.35;;;2.50;;
51792;SDS011;37850;53.178;6.376;2022-10-26T12:21:16;8.48;;;3.00;;
51792;SDS011;37850;53.178;6.376;2022-10-26T12:23:59;11.80;;;3.15;;
51792;SDS011;37850;53.178;6.376;2022-10-26T12:26:50;12.80;;;3.42;;
51792;SDS011;37850;53.178;6.376;2022-10-26T12:29:37;10.35;;;2.85;;
51792;SDS011;37850;53.178;6.376;2022-10-26T12:33:25;8.43;;;2.70;;
51792;SDS011;37850;53.178;6.376;2022-10-26T12:48:44;7.88;;;2.92;;
51792;SDS011;37850;53.178;6.376;2022-10-26T12:53:55;8.93;;;3.47;;
51792;SDS011;37850;53.178;6.376;2022-10-26T12:56:48;13.15;;;3.97;;
51792;SDS011;37850;53.178;6.376;2022-10-26T13:08:07;10.80;;;4.22;;
51792;SDS011;37850;53.178;6.376;2022-10-26T13:10:35;12.52;;;5.18;;
51792;SDS011;37850;53.178;6.376;2022-10-26T13:13:22;10.80;;;4.90;;
51792;SDS011;37850;53.178;6.376;2022-10-26T13:15:52;12.73;;;4.90;;
51792;SDS011;37850;53.178;6.376;2022-10-26T13:18:19;16.92;;;5.55;;
51792;SDS011;37850;53.178;6.376;2022-10-26T13:23:28;11.82;;;5.30;;
51792;SDS011;37850;53.178;6.376;2022-10-26T13:26:04;13.25;;;5.50;;
51792;SDS011;37850;53.178;6.376;2022-10-26T13:31:01;9.23;;;4.85;;
51792;SDS011;37850;53.178;6.376;2022-10-26T13:33:48;11.70;;;4.90;;
51792;SDS011;37850;53.178;6.376;2022-10-26T13:36:17;12.20;;;4.95;;
51792;SDS011;37850;53.178;6.376;2022-10-26T13:38:53;15.93;;;4.55;;
51792;SDS011;37850;53.178;6.376;2022-10-26T13:41:24;12.63;;;4.72;;
51792;SDS011;37850;53.178;6.376;2022-10-26T13:43:56;13.45;;;5.38;;
51792;SDS011;37850;53.178;6.376;2022-10-26T13:46:25;11.80;;;4.95;;
51792;SDS011;37850;53.178;6.376;2022-10-26T13:48:53;12.23;;;5.47;;
51792;SDS011;37850;53.178;6.376;2022-10-26T13:51:36;14.02;;;4.78;;
51792;SDS011;37850;53.178;6.376;2022-10-26T13:54:18;13.05;;;5.10;;
51792;SDS011;37850;53.178;6.376;2022-10-26T13:57:01;9.40;;;4.75;;
51792;SDS011;37850;53.178;6.376;2022-10-26T13:59:42;17.00;;;4.97;;
51792;SDS011;37850;53.178;6.376;2022-10-26T14:04:52;8.80;;;4.25;;
51792;SDS011;37850;53.178;6.376;2022-10-26T14:07:24;10.70;;;4.63;;
51792;SDS011;37850;53.178;6.376;2022-10-26T14:09:56;9.68;;;4.15;;
51792;SDS011;37850;53.178;6.376;2022-10-26T14:12:23;8.20;;;3.88;;
51792;SDS011;37850;53.178;6.376;2022-10-26T14:14:50;12.32;;;4.07;;
51792;SDS011;37850;53.178;6.376;2022-10-26T14:17:18;10.70;;;3.70;;
51792;SDS011;37850;53.178;6.376;2022-10-26T14:19:45;10.05;;;4.07;;
51792;SDS011;37850;53.178;6.376;2022-10-26T14:22:20;11.63;;;3.78;;
51792;SDS011;37850;53.178;6.376;2022-10-26T14:24:52;17.00;;;3.80;;
51792;SDS011;37850;53.178;6.376;2022-10-26T14:27:21;8.77;;;3.45;;
51792;SDS011;37850;53.178;6.376;2022-10-26T14:29:49;15.60;;;4.20;;
51792;SDS011;37850;53.178;6.376;2022-10-26T14:34:45;10.82;;;4.30;;
51792;SDS011;37850;53.178;6.376;2022-10-26T14:37:11;11.18;;;4.15;;
51792;SDS011;37850;53.178;6.376;2022-10-26T14:39:49;9.98;;;4.15;;
51792;SDS011;37850;53.178;6.376;2022-10-26T14:42:26;11.70;;;4.72;;
51792;SDS011;37850;53.178;6.376;2022-10-26T14:44:56;14.48;;;4.90;;
51792;SDS011;37850;53.178;6.376;2022-10-26T14:47:23;9.40;;;4.30;;
51792;SDS011;37850;53.178;6.376;2022-10-26T14:49:51;11.25;;;4.50;;
51792;SDS011;37850;53.178;6.376;2022-10-26T14:52:28;13.48;;;4.85;;
51792;SDS011;37850;53.178;6.376;2022-10-26T14:55:18;10.60;;;4.65;;
51792;SDS011;37850;53.178;6.376;2022-10-26T14:57:43;11.80;;;4.30;;
51792;SDS011;37850;53.178;6.376;2022-10-26T15:02:39;10.38;;;4.65;;
51792;SDS011;37850;53.178;6.376;2022-10-26T15:07:50;12.73;;;5.50;;
51792;SDS011;37850;53.178;6.376;2022-10-26T15:13:13;13.05;;;5.10;;
51792;SDS011;37850;53.178;6.376;2022-10-26T15:15:43;16.10;;;5.75;;
51792;SDS011;37850;53.178;6.376;2022-10-26T15:18:14;11.88;;;6.25;;
51792;SDS011;37850;53.178;6.376;2022-10-26T15:20:53;17.42;;;6.72;;
51792;SDS011;37850;53.178;6.376;2022-10-26T15:23:20;10.90;;;7.05;;
51792;SDS011;37850;53.178;6.376;2022-10-26T15:25:54;15.68;;;7.30;;
51792;SDS011;37850;53.178;6.376;2022-10-26T15:28:43;12.65;;;8.15;;
51792;SDS011;37850;53.178;6.376;2022-10-26T15:33:39;16.38;;;9.15;;
51792;SDS011;37850;53.178;6.376;2022-10-26T15:38:33;14.02;;;8.77;;
51792;SDS011;37850;53.178;6.376;2022-10-26T15:40:59;13.90;;;8.85;;
51792;SDS011;37850;53.178;6.376;2022-10-26T15:43:24;14.55;;;9.27;;
51792;SDS011;37850;53.178;6.376;2022-10-26T15:45:50;15.02;;;8.93;;
51792;SDS011;37850;53.178;6.376;2022-10-26T15:48:23;15.07;;;8.38;;
51792;SDS011;37850;53.178;6.376;2022-10-26T15:50:53;12.57;;;8.85;;
51792;SDS011;37850;53.178;6.376;2022-10-26T15:53:20;14.70;;;8.32;;
51792;SDS011;37850;53.178;6.376;2022-10-26T15:55:47;19.55;;;8.85;;
51792;SDS011;37850;53.178;6.376;2022-10-26T15:58:16;14.63;;;9.15;;
51792;SDS011;37850;53.178;6.376;2022-10-26T16:00:42;16.55;;;9.23;;
51792;SDS011;37850;53.178;6.376;2022-10-26T16:03:12;14.73;;;8.85;;
51792;SDS011;37850;53.178;6.376;2022-10-26T16:05:40;17.90;;;7.93;;
51792;SDS011;37850;53.178;6.376;2022-10-26T16:08:16;18.45;;;9.35;;
51792;SDS011;37850;53.178;6.376;2022-10-26T16:10:42;11.65;;;8.07;;
51792;SDS011;37850;53.178;6.376;2022-10-26T16:13:11;13.00;;;7.72;;
51792;SDS011;37850;53.178;6.376;2022-10-26T16:15:38;16.25;;;8.18;;
51792;SDS011;37850;53.178;6.376;2022-10-26T16:18:03;11.98;;;7.82;;
51792;SDS011;37850;53.178;6.376;2022-10-26T16:20:29;11.65;;;6.95;;
51792;SDS011;37850;53.178;6.376;2022-10-26T16:22:55;12.13;;;8.00;;
51792;SDS011;37850;53.178;6.376;2022-10-26T16:25:24;12.57;;;6.57;;
51792;SDS011;37850;53.178;6.376;2022-10-26T16:27:50;13.23;;;6.78;;
51792;SDS011;37850;53.178;6.376;2022-10-26T16:30:17;15.35;;;7.13;;
51792;SDS011;37850;53.178;6.376;2022-10-26T16:32:43;13.15;;;7.40;;
51792;SDS011;37850;53.178;6.376;2022-10-26T16:35:09;13.95;;;6.63;;
51792;SDS011;37850;53.178;6.376;2022-10-26T16:37:36;13.48;;;6.68;;
51792;SDS011;37850;53.178;6.376;2022-10-26T16:40:05;10.50;;;6.30;;
51792;SDS011;37850;53.178;6.376;2022-10-26T16:42:32;9.95;;;5.95;;
51792;SDS011;37850;53.178;6.376;2022-10-26T16:44:58;12.43;;;6.68;;
51792;SDS011;37850;53.178;6.376;2022-10-26T16:47:24;10.93;;;5.90;;
51792;SDS011;37850;53.178;6.376;2022-10-26T16:49:50;11.95;;;5.90;;
51792;SDS011;37850;53.178;6.376;2022-10-26T16:52:16;15.77;;;5.88;;
51792;SDS011;37850;53.178;6.376;2022-10-26T16:54:41;16.45;;;7.95;;
51792;SDS011;37850;53.178;6.376;2022-10-26T16:57:08;14.05;;;7.70;;
51792;SDS011;37850;53.178;6.376;2022-10-26T16:59:35;11.88;;;6.15;;
51792;SDS011;37850;53.178;6.376;2022-10-26T17:02:00;17.30;;;6.07;;
51792;SDS011;37850;53.178;6.376;2022-10-26T17:04:29;12.60;;;6.22;;
51792;SDS011;37850;53.178;6.376;2022-10-26T17:06:55;19.08;;;6.45;;
51792;SDS011;37850;53.178;6.376;2022-10-26T17:09:21;10.75;;;5.75;;
51792;SDS011;37850;53.178;6.376;2022-10-26T17:11:47;11.52;;;6.80;;
51792;SDS011;37850;53.178;6.376;2022-10-26T17:14:12;12.02;;;6.63;;
51792;SDS011;37850;53.178;6.376;2022-10-26T17:16:38;11.48;;;5.70;;
51792;SDS011;37850;53.178;6.376;2022-10-26T17:19:04;14.02;;;6.43;;
51792;SDS011;37850;53.178;6.376;2022-10-26T17:21:31;16.25;;;6.45;;
51792;SDS011;37850;53.178;6.376;2022-10-26T17:23:59;11.95;;;6.00;;
51792;SDS011;37850;53.178;6.376;2022-10-26T17:26:25;10.30;;;5.63;;
51792;SDS011;37850;53.178;6.376;2022-10-26T17:28:51;19.90;;;9.75;;
51792;SDS011;37850;53.178;6.376;2022-10-26T17:31:18;17.65;;;9.52;;
51792;SDS011;37850;53.178;6.376;2022-10-26T17:33:44;14.48;;;8.82;;